North Turner, Maine
Current Conditions -  °F | °C
As of 1:15 PM on Monday 24 Nov 2014 (Local Time) from KLEW Reporting Station
Overcast Overcast  
Wind Chill: 55°   Ceiling: 500
Heat Index: 55°   Visibility: 5mi
Dew Point: 55°   Wind: 12mph
Humidity: 100%   Direction: 160°SSE
Pressure: 29.59"   Gusts: 18mph
Location:  44.34°N, 70.26°W
Report Text: KLEW 241815Z AUTO 16010G16KT 5SM OVC005 13/13 A2959 RMK AO1
Loading
Personal Weather Stations






























Interactive Weather Map New forecast layout! Learn more

10-Day Weather Forecast

Advertisements
Track Severe Weather on mobile